Terminal Aerodrome Forecast
Issued by NWS Sterling, VA

Current Version | Previous Version | Graphics & Text | Print | Product List | Glossary On
Versions: 1 2 3 4 5 6 7 8 9 10 11 12 13 14 15 16 17 18 19 20 21 22 23 24
000
FTUS41 KLWX 151500 AAA
TAFIAD
TAF AMD
KIAD 151500Z 1515/1618 00000KT P6SM SCT250
     FM151800 VRB03KT P6SM BKN035
     FM152100 15005KT P6SM OVC025
     FM160000 VRB03KT 5SM -DZ BR OVC020
     FM160600 VRB03KT P6SM BKN050
     FM161500 28011G19KT P6SM SCT050=

USA.gov is the U.S. government's official web portal to all federal, state and local government web resources and services.